Time;durP1;ratioP1;P1;durP2;ratioP2;P2;SDS_P1;SDS_P2;PMS_P1;PMS_P2;Temp;Humidity;BMP_temperature;BMP_pressure;BME280_temperature;BME280_humidity;BME280_pressure;Samples;Min_cycle;Max_cycle;Signal;HPM_P1;HPM_P2
2021/04/24 00:02:11;;;;;;;11.93;6.63;;;4.70;87.60;;;;;;4950024;29;20027;-88
2021/04/24 00:04:38;;;;;;;19.48;7.00;;;4.70;87.70;;;;;;4955063;29;20039;-88
2021/04/24 00:07:04;;;;;;;14.65;7.03;;;4.70;87.90;;;;;;4954424;29;20432;-87
2021/04/24 00:09:30;;;;;;;14.68;6.53;;;4.70;87.80;;;;;;4955400;29;20035;-88
2021/04/24 00:11:55;;;;;;;18.02;6.88;;;4.70;87.80;;;;;;4951302;29;20027;-88
2021/04/24 00:14:21;;;;;;;16.58;7.30;;;4.70;88.00;;;;;;4948094;29;20046;-88
2021/04/24 00:16:46;;;;;;;18.38;7.03;;;4.70;87.90;;;;;;4946368;29;20024;-88
2021/04/24 00:19:12;;;;;;;14.30;6.28;;;4.70;88.00;;;;;;4945391;29;20023;-88
2021/04/24 00:21:38;;;;;;;15.07;7.38;;;4.70;88.00;;;;;;4950293;29;20369;-88
2021/04/24 00:24:05;;;;;;;17.05;6.72;;;4.80;88.00;;;;;;4948350;29;20036;-88
2021/04/24 00:26:30;;;;;;;13.95;6.07;;;4.70;87.90;;;;;;4945653;29;20055;-88
2021/04/24 00:28:56;;;;;;;14.85;7.05;;;4.70;87.90;;;;;;4947358;29;20488;-88
2021/04/24 00:31:21;;;;;;;11.95;6.10;;;4.70;88.00;;;;;;4949888;29;20032;-88
2021/04/24 00:33:47;;;;;;;14.98;6.68;;;4.70;87.90;;;;;;4951709;28;20542;-88
2021/04/24 00:36:13;;;;;;;20.33;7.03;;;4.60;88.00;;;;;;4947891;29;20019;-88
2021/04/24 00:38:39;;;;;;;15.77;6.18;;;4.60;88.00;;;;;;4948020;29;20046;-88
2021/04/24 00:41:04;;;;;;;12.65;6.63;;;4.60;88.30;;;;;;4947682;28;20042;-89
2021/04/24 00:43:30;;;;;;;19.05;7.57;;;4.50;88.40;;;;;;4932419;29;20043;-88
2021/04/24 00:45:56;;;;;;;13.38;6.82;;;4.40;88.50;;;;;;4951672;29;20035;-87
2021/04/24 00:48:21;;;;;;;17.67;6.85;;;4.40;88.70;;;;;;4948931;29;20027;-88
2021/04/24 00:50:47;;;;;;;14.07;6.75;;;4.30;88.70;;;;;;4946884;29;20024;-88
2021/04/24 00:53:13;;;;;;;17.27;6.40;;;4.30;88.90;;;;;;4948478;29;20031;-88
2021/04/24 00:55:41;;;;;;;14.35;6.40;;;4.30;89.00;;;;;;4948939;29;20502;-87
2021/04/24 00:58:11;;;;;;;13.18;6.95;;;4.20;89.00;;;;;;4952154;29;20579;-88
2021/04/24 01:00:37;;;;;;;15.68;6.60;;;4.20;89.10;;;;;;4953157;29;20019;-88
2021/04/24 01:03:03;;;;;;;14.15;6.30;;;4.10;89.10;;;;;;4947274;29;20085;-88
2021/04/24 01:05:34;;;;;;;14.90;6.93;;;4.10;89.30;;;;;;4950124;29;20027;-87
2021/04/24 01:08:01;;;;;;;20.27;7.05;;;4.00;89.50;;;;;;4948801;29;20031;-88
2021/04/24 01:10:32;;;;;;;15.63;6.65;;;4.00;89.60;;;;;;4951652;29;20456;-88
2021/04/24 01:12:57;;;;;;;12.73;6.57;;;3.90;89.80;;;;;;4948471;28;20039;-88
2021/04/24 01:15:23;;;;;;;16.42;7.25;;;3.90;90.00;;;;;;4945534;28;20396;-88
2021/04/24 01:17:49;;;;;;;17.48;7.43;;;3.90;90.00;;;;;;4947681;29;20035;-88
2021/04/24 01:20:16;;;;;;;15.85;6.97;;;3.90;89.90;;;;;;4945066;29;20118;-87
2021/04/24 01:22:44;;;;;;;15.57;7.25;;;3.90;90.00;;;;;;4945485;29;20031;-88
2021/04/24 01:25:13;;;;;;;16.35;7.07;;;3.80;90.00;;;;;;4948227;28;21026;-87
2021/04/24 01:27:39;;;;;;;18.83;6.95;;;3.80;90.00;;;;;;4947470;29;20102;-88
2021/04/24 01:30:10;;;;;;;18.08;7.57;;;3.80;90.00;;;;;;4947613;29;20127;-87
2021/04/24 01:32:37;;;;;;;13.65;6.90;;;3.80;90.10;;;;;;4948380;29;20487;-88
2021/04/24 01:35:06;;;;;;;16.63;6.82;;;3.80;90.10;;;;;;4948490;28;20035;-87
2021/04/24 01:37:33;;;;;;;15.48;6.80;;;3.80;90.20;;;;;;4949575;29;20035;-88
2021/04/24 01:39:59;;;;;;;14.88;6.95;;;3.80;90.20;;;;;;4945975;29;20028;-88
2021/04/24 01:42:24;;;;;;;17.38;7.97;;;3.80;90.30;;;;;;4949939;28;20035;-88
2021/04/24 01:44:50;;;;;;;21.27;8.80;;;3.80;90.30;;;;;;4947490;29;20035;-88
2021/04/24 01:47:15;;;;;;;14.88;6.38;;;3.80;90.30;;;;;;4947153;29;20315;-88
2021/04/24 01:49:41;;;;;;;16.05;7.22;;;3.70;90.30;;;;;;4943931;29;20024;-87
2021/04/24 01:52:06;;;;;;;19.30;6.32;;;3.70;90.40;;;;;;4946170;29;20039;-88
2021/04/24 01:54:32;;;;;;;13.93;7.25;;;3.60;90.40;;;;;;4945397;29;20031;-88
2021/04/24 01:56:58;;;;;;;14.70;7.65;;;3.60;90.50;;;;;;4946333;29;20467;-87
2021/04/24 01:59:27;;;;;;;16.50;7.60;;;3.60;90.50;;;;;;4946116;29;20035;-88
2021/04/24 02:01:56;;;;;;;22.92;7.75;;;3.60;90.60;;;;;;4946238;29;20114;-88
2021/04/24 02:04:24;;;;;;;16.60;6.95;;;3.60;90.60;;;;;;4946983;29;20031;-88
2021/04/24 02:06:50;;;;;;;18.48;7.90;;;3.60;90.60;;;;;;4945588;29;20027;-88
2021/04/24 02:09:17;;;;;;;17.95;6.72;;;3.60;90.70;;;;;;4946338;28;20075;-88
2021/04/24 02:12:05;;;;;;;18.38;7.60;;;3.60;90.70;;;;;;4944558;29;20058;-88
2021/04/24 02:14:36;;;;;;;17.40;7.13;;;3.60;90.70;;;;;;4948430;28;20070;-88
2021/04/24 02:17:03;;;;;;;19.90;8.57;;;3.50;90.70;;;;;;4947419;28;20024;-88
2021/04/24 02:19:29;;;;;;;14.52;6.47;;;3.50;90.80;;;;;;4946844;28;20263;-87
2021/04/24 02:21:54;;;;;;;17.33;7.60;;;3.50;90.90;;;;;;4944139;29;20134;-88
2021/04/24 02:24:20;;;;;;;15.30;7.03;;;3.60;91.00;;;;;;4943295;29;20086;-88
2021/04/24 02:26:45;;;;;;;15.95;7.20;;;3.60;90.90;;;;;;4946887;29;20024;-87
2021/04/24 02:29:11;;;;;;;17.35;7.25;;;3.60;90.90;;;;;;4943444;29;20024;-88
2021/04/24 02:31:36;;;;;;;18.60;7.65;;;3.60;90.90;;;;;;4944522;29;20079;-88
2021/04/24 02:34:03;;;;;;;20.80;6.75;;;3.60;90.80;;;;;;4945979;29;22656;-88
2021/04/24 02:36:28;;;;;;;18.00;7.43;;;3.60;90.90;;;;;;4944762;29;20034;-88
2021/04/24 02:38:54;;;;;;;13.20;6.43;;;3.60;91.00;;;;;;4946107;29;20028;-88
2021/04/24 02:41:20;;;;;;;18.45;7.38;;;3.60;91.00;;;;;;4943068;29;20044;-88
2021/04/24 02:43:46;;;;;;;21.95;8.07;;;3.50;91.00;;;;;;4946215;29;20042;-87
2021/04/24 02:46:12;;;;;;;16.75;8.20;;;3.50;91.10;;;;;;4943739;29;20031;-87
2021/04/24 02:48:38;;;;;;;22.30;8.13;;;3.50;91.10;;;;;;4945446;29;20102;-87
2021/04/24 02:51:04;;;;;;;17.45;7.03;;;3.40;91.10;;;;;;4948150;28;20106;-87
2021/04/24 02:53:29;;;;;;;19.35;7.70;;;3.40;91.30;;;;;;4943653;29;20035;-87
2021/04/24 02:55:55;;;;;;;17.67;7.13;;;3.40;91.30;;;;;;4946591;29;20468;-87
2021/04/24 02:58:20;;;;;;;20.35;7.88;;;3.40;91.30;;;;;;4941899;29;20059;-87
2021/04/24 03:00:46;;;;;;;19.80;8.25;;;3.40;91.30;;;;;;4944669;29;20032;-87
2021/04/24 03:03:14;;;;;;;20.15;8.23;;;3.40;91.30;;;;;;4946777;29;20063;-86
2021/04/24 03:05:42;;;;;;;18.00;8.00;;;3.40;91.50;;;;;;4946971;28;20076;-87
2021/04/24 03:08:09;;;;;;;16.58;7.13;;;3.30;91.40;;;;;;4944511;29;20031;-87
2021/04/24 03:10:36;;;;;;;16.98;8.15;;;3.30;91.50;;;;;;4945791;28;20093;-88
2021/04/24 03:13:03;;;;;;;19.23;7.43;;;3.20;91.40;;;;;;4944589;28;20471;-88
2021/04/24 03:15:29;;;;;;;20.05;8.02;;;3.10;91.40;;;;;;4947367;29;20019;-87
2021/04/24 03:17:54;;;;;;;19.55;8.05;;;3.10;91.50;;;;;;4942624;28;20031;-88
2021/04/24 03:20:21;;;;;;;18.27;7.68;;;3.00;91.60;;;;;;4943659;29;20031;-87
2021/04/24 03:22:47;;;;;;;16.67;7.38;;;3.00;91.70;;;;;;4942923;29;20028;-88
2021/04/24 03:25:14;;;;;;;16.80;7.93;;;2.90;91.70;;;;;;4942091;29;20027;-88
2021/04/24 03:27:40;;;;;;;18.42;7.38;;;2.90;91.70;;;;;;4946663;28;20028;-86
2021/04/24 03:30:08;;;;;;;20.80;7.20;;;2.80;91.70;;;;;;4943850;29;20110;-87
2021/04/24 03:32:34;;;;;;;19.35;7.18;;;2.80;91.80;;;;;;4945276;28;20503;-87
2021/04/24 03:35:00;;;;;;;25.65;8.15;;;2.80;91.90;;;;;;4944590;29;20031;-87
2021/04/24 03:37:26;;;;;;;19.27;8.20;;;2.70;91.90;;;;;;4942342;29;20019;-87
2021/04/24 03:39:51;;;;;;;20.75;7.78;;;2.70;92.00;;;;;;4945271;29;20031;-87
2021/04/24 03:42:17;;;;;;;21.38;8.90;;;2.70;92.10;;;;;;4943618;28;20031;-87
2021/04/24 03:44:43;;;;;;;18.25;7.97;;;2.70;92.10;;;;;;4945846;29;20051;-87
2021/04/24 03:47:08;;;;;;;22.10;8.73;;;2.70;92.10;;;;;;4946332;29;20035;-87
2021/04/24 03:49:35;;;;;;;17.23;7.47;;;2.70;92.10;;;;;;4947316;28;20042;-88
2021/04/24 03:52:01;;;;;;;21.63;8.55;;;2.70;92.10;;;;;;4966446;28;20395;-87
2021/04/24 03:54:26;;;;;;;21.98;8.93;;;2.70;92.10;;;;;;4944718;29;20063;-87
2021/04/24 03:56:52;;;;;;;22.20;9.70;;;2.70;92.20;;;;;;4943597;29;20076;-88
2021/04/24 03:59:17;;;;;;;20.92;8.35;;;2.70;92.20;;;;;;4943168;29;20051;-88
2021/04/24 04:01:43;;;;;;;20.30;9.15;;;2.60;92.20;;;;;;4943271;29;20031;-87
2021/04/24 04:04:09;;;;;;;18.38;8.15;;;2.60;92.30;;;;;;4945205;29;20497;-87
2021/04/24 04:06:35;;;;;;;23.40;9.07;;;2.60;92.30;;;;;;4942846;29;20031;-87
2021/04/24 04:09:00;;;;;;;23.50;9.63;;;2.60;92.30;;;;;;4944537;29;20614;-87
2021/04/24 04:11:26;;;;;;;20.58;8.48;;;2.50;92.40;;;;;;4943673;28;20447;-87
2021/04/24 04:13:51;;;;;;;21.02;7.90;;;2.50;92.40;;;;;;4944130;29;20129;-87
2021/04/24 04:16:17;;;;;;;22.13;8.93;;;2.40;92.40;;;;;;4944403;29;20031;-87
2021/04/24 04:18:42;;;;;;;21.95;8.45;;;2.40;92.50;;;;;;4942803;29;20071;-86
2021/04/24 04:21:08;;;;;;;19.48;8.90;;;2.40;92.50;;;;;;4943534;29;20027;-87
2021/04/24 04:23:34;;;;;;;20.73;8.90;;;2.40;92.50;;;;;;4943431;29;20024;-88
2021/04/24 04:26:00;;;;;;;24.88;8.40;;;2.40;92.50;;;;;;4965762;28;20042;-88
2021/04/24 04:28:26;;;;;;;22.60;8.35;;;2.30;92.60;;;;;;4945701;29;20040;-87
2021/04/24 04:30:53;;;;;;;20.85;8.15;;;2.30;92.60;;;;;;4943042;29;20393;-87
2021/04/24 04:33:19;;;;;;;23.58;8.30;;;2.30;92.70;;;;;;4945769;29;20491;-86
2021/04/24 04:35:45;;;;;;;19.60;8.35;;;2.30;92.70;;;;;;4942076;28;20504;-87
2021/04/24 04:38:11;;;;;;;18.23;7.60;;;2.30;92.80;;;;;;4943303;29;20050;-87
2021/04/24 04:40:37;;;;;;;18.95;7.97;;;2.30;92.80;;;;;;4953033;29;20035;-87
2021/04/24 04:43:04;;;;;;;19.70;8.00;;;2.30;92.80;;;;;;4946132;29;20554;-87
2021/04/24 04:45:29;;;;;;;20.38;8.00;;;2.30;92.80;;;;;;4948378;29;20053;-86
2021/04/24 04:47:55;;;;;;;22.77;8.80;;;2.30;92.90;;;;;;4943415;29;20059;-87
2021/04/24 04:50:23;;;;;;;25.13;8.82;;;2.30;92.90;;;;;;4948907;29;20032;-87
2021/04/24 04:52:49;;;;;;;21.23;8.57;;;2.30;92.90;;;;;;4952779;29;20040;-87
2021/04/24 04:55:15;;;;;;;21.42;8.85;;;2.40;92.90;;;;;;4949409;29;20038;-87
2021/04/24 04:57:41;;;;;;;20.30;8.50;;;2.40;92.90;;;;;;4955079;29;20588;-87
2021/04/24 05:00:12;;;;;;;18.67;9.50;;;2.40;93.00;;;;;;4946446;29;20392;-87
2021/04/24 05:02:39;;;;;;;21.02;8.40;;;2.50;93.00;;;;;;4948696;29;20118;-87
2021/04/24 05:05:06;;;;;;;22.75;10.13;;;2.60;93.00;;;;;;4971933;28;20109;-87
2021/04/24 05:07:34;;;;;;;23.00;8.95;;;2.60;93.10;;;;;;4948038;29;20035;-87
2021/04/24 05:10:00;;;;;;;22.13;9.48;;;2.70;93.10;;;;;;4949962;29;20031;-87
2021/04/24 05:12:25;;;;;;;21.00;9.88;;;2.80;93.10;;;;;;4943779;28;20202;-87
2021/04/24 05:14:51;;;;;;;24.15;9.35;;;2.80;93.10;;;;;;4953078;28;20114;-88
2021/04/24 05:17:17;;;;;;;23.92;9.38;;;2.90;93.10;;;;;;4948561;29;20062;-88
2021/04/24 05:19:42;;;;;;;22.00;9.18;;;3.00;93.10;;;;;;4948388;29;20035;-87
2021/04/24 05:22:08;;;;;;;23.38;9.68;;;3.00;93.10;;;;;;4942651;29;20475;-88
2021/04/24 05:24:34;;;;;;;23.60;9.57;;;3.10;93.10;;;;;;4948771;29;20027;-87
2021/04/24 05:27:00;;;;;;;26.65;10.57;;;3.20;93.00;;;;;;4950539;29;20570;-88
2021/04/24 05:29:26;;;;;;;25.58;9.93;;;3.20;93.00;;;;;;4947752;29;20019;-88
2021/04/24 05:31:51;;;;;;;22.02;9.45;;;3.30;93.00;;;;;;4952859;29;20036;-87
2021/04/24 05:34:17;;;;;;;22.70;9.55;;;3.40;93.10;;;;;;4954020;29;20068;-87
2021/04/24 05:36:43;;;;;;;21.23;10.02;;;3.40;93.10;;;;;;4943721;29;20032;-87
2021/04/24 05:39:09;;;;;;;23.85;9.23;;;3.50;93.00;;;;;;4950476;29;20065;-88
2021/04/24 05:41:35;;;;;;;22.95;9.63;;;3.60;93.00;;;;;;4954523;29;20043;-87
2021/04/24 05:44:01;;;;;;;22.42;9.82;;;3.60;93.00;;;;;;4948652;29;20035;-87
2021/04/24 05:46:27;;;;;;;25.02;8.63;;;3.70;93.00;;;;;;4944976;29;20031;-87
2021/04/24 05:48:53;;;;;;;23.10;9.55;;;3.80;92.90;;;;;;4947900;28;20031;-87
2021/04/24 05:51:20;;;;;;;21.05;8.48;;;3.90;92.90;;;;;;4949889;29;20102;-87
2021/04/24 05:53:47;;;;;;;20.42;8.27;;;4.10;92.90;;;;;;4948582;28;20381;-87
2021/04/24 05:56:14;;;;;;;27.65;10.63;;;4.10;92.80;;;;;;4944770;29;20030;-86
2021/04/24 05:58:39;;;;;;;27.35;9.23;;;4.30;92.80;;;;;;4945300;29;20029;-87
2021/04/24 06:01:05;;;;;;;19.67;9.55;;;4.40;92.70;;;;;;4944639;29;20027;-87
2021/04/24 06:03:31;;;;;;;20.50;9.18;;;4.50;92.60;;;;;;4945322;29;20057;-87
2021/04/24 06:05:57;;;;;;;19.92;8.38;;;4.60;92.70;;;;;;4945780;29;20740;-87
2021/04/24 06:08:22;;;;;;;18.10;8.45;;;4.70;92.60;;;;;;4946502;29;20035;-87
2021/04/24 06:10:48;;;;;;;21.70;9.55;;;4.90;92.50;;;;;;4945786;29;20381;-87
2021/04/24 06:13:14;;;;;;;18.33;8.82;;;5.00;92.30;;;;;;4945922;29;20050;-86
2021/04/24 06:15:40;;;;;;;22.45;8.95;;;5.00;92.20;;;;;;4944607;29;20504;-87
2021/04/24 06:18:06;;;;;;;19.42;10.00;;;5.10;92.00;;;;;;4950128;28;20491;-86
2021/04/24 06:20:32;;;;;;;19.73;8.85;;;5.10;92.00;;;;;;4947681;29;20499;-86
2021/04/24 06:22:57;;;;;;;17.30;8.23;;;5.20;92.00;;;;;;4947758;29;20031;-87
2021/04/24 06:25:24;;;;;;;21.33;8.73;;;5.30;91.90;;;;;;4949050;28;20566;-86
2021/04/24 06:27:50;;;;;;;23.23;9.52;;;5.30;91.80;;;;;;4948048;28;21141;-87
2021/04/24 06:30:18;;;;;;;21.42;8.70;;;5.30;92.00;;;;;;4946188;28;20118;-86
2021/04/24 06:32:45;;;;;;;20.27;9.10;;;5.40;91.60;;;;;;4943758;29;20075;-87
2021/04/24 06:35:12;;;;;;;18.42;8.23;;;5.40;91.50;;;;;;4945592;28;20031;-87
2021/04/24 06:37:38;;;;;;;24.42;8.82;;;5.50;91.50;;;;;;4945022;29;20027;-87
2021/04/24 06:40:05;;;;;;;21.88;8.38;;;5.60;91.50;;;;;;4947890;29;20110;-88
2021/04/24 06:42:31;;;;;;;16.92;8.40;;;5.70;91.50;;;;;;4944836;29;20056;-87
2021/04/24 06:44:57;;;;;;;19.42;8.85;;;5.80;91.40;;;;;;4943882;29;20038;-88
2021/04/24 06:47:24;;;;;;;17.33;8.13;;;5.90;91.30;;;;;;4945326;29;20035;-88
2021/04/24 06:49:50;;;;;;;19.05;7.40;;;6.10;91.30;;;;;;4943317;29;20122;-87
2021/04/24 06:52:15;;;;;;;19.52;8.57;;;6.20;91.00;;;;;;4941801;29;20122;-88
2021/04/24 06:54:41;;;;;;;20.92;9.32;;;6.30;90.90;;;;;;4944408;29;20403;-89
2021/04/24 06:57:06;;;;;;;19.35;8.90;;;6.40;90.90;;;;;;4943708;28;20035;-88
2021/04/24 06:59:32;;;;;;;18.15;8.07;;;6.50;90.70;;;;;;4945533;28;20030;-89
2021/04/24 07:01:58;;;;;;;18.88;7.95;;;6.70;90.70;;;;;;4944943;28;20031;-88
2021/04/24 07:04:23;;;;;;;17.67;8.80;;;6.90;90.60;;;;;;4949495;29;20472;-89
2021/04/24 07:06:49;;;;;;;17.75;8.40;;;7.00;90.50;;;;;;4946335;29;20118;-88
2021/04/24 07:09:14;;;;;;;16.67;7.70;;;7.10;90.30;;;;;;4946973;29;20035;-89
2021/04/24 07:11:40;;;;;;;16.75;7.38;;;7.20;90.00;;;;;;4946037;29;20031;-89
2021/04/24 07:14:05;;;;;;;17.02;7.28;;;7.30;89.80;;;;;;4947654;29;20043;-87
2021/04/24 07:16:31;;;;;;;16.63;6.68;;;7.40;89.60;;;;;;4956284;29;20046;-88
2021/04/24 07:18:57;;;;;;;15.23;6.90;;;7.50;89.20;;;;;;4957664;29;20045;-86
2021/04/24 07:21:22;;;;;;;15.52;6.90;;;7.60;89.00;;;;;;4944601;29;20039;-87
2021/04/24 07:23:48;;;;;;;12.82;5.97;;;7.70;88.60;;;;;;4948854;29;20130;-87
2021/04/24 07:26:15;;;;;;;12.30;6.15;;;7.70;88.40;;;;;;4947160;29;20023;-86
2021/04/24 07:28:40;;;;;;;17.00;6.65;;;7.80;87.50;;;;;;4948657;28;20348;-88
2021/04/24 07:31:06;;;;;;;15.07;6.88;;;7.90;86.90;;;;;;4947561;29;20507;-88
2021/04/24 07:33:32;;;;;;;13.35;6.40;;;8.00;86.40;;;;;;4943782;28;20050;-86
2021/04/24 07:35:58;;;;;;;12.90;6.68;;;8.10;86.10;;;;;;4944001;29;20031;-85
2021/04/24 07:38:23;;;;;;;12.40;5.93;;;8.20;85.70;;;;;;4949212;28;20106;-88
2021/04/24 07:40:49;;;;;;;16.95;8.07;;;8.30;86.10;;;;;;4945146;28;20131;-88
2021/04/24 07:43:15;;;;;;;13.68;5.70;;;8.60;86.00;;;;;;4947039;28;20114;-88
2021/04/24 07:45:42;;;;;;;10.00;5.25;;;8.90;85.50;;;;;;4950828;29;20066;-88
2021/04/24 07:48:07;;;;;;;10.18;5.15;;;9.10;84.40;;;;;;4968972;28;20043;-88
2021/04/24 07:50:34;;;;;;;14.70;5.97;;;9.30;83.70;;;;;;4945320;28;20128;-89
2021/04/24 07:53:00;;;;;;;11.93;5.45;;;9.40;81.60;;;;;;4947694;29;20039;-86
2021/04/24 07:55:27;;;;;;;16.92;4.93;;;9.30;81.20;;;;;;4947748;29;20390;-88
2021/04/24 07:57:53;;;;;;;17.30;6.57;;;9.20;81.00;;;;;;4949551;29;20447;-88
2021/04/24 08:00:18;;;;;;;13.00;5.50;;;9.10;80.50;;;;;;4952794;28;20032;-88
2021/04/24 08:02:44;;;;;;;9.23;3.85;;;9.10;80.90;;;;;;4951955;28;20035;-88
2021/04/24 08:05:10;;;;;;;7.75;3.55;;;9.20;79.40;;;;;;4946263;29;20102;-87
2021/04/24 08:07:36;;;;;;;8.95;4.10;;;9.30;78.40;;;;;;4949812;29;20064;-88
2021/04/24 08:10:02;;;;;;;7.65;3.08;;;9.50;77.90;;;;;;4944493;29;20027;-88
2021/04/24 08:12:27;;;;;;;5.63;2.70;;;9.60;77.10;;;;;;4945351;28;20028;-89
2021/04/24 08:14:55;;;;;;;5.90;2.08;;;9.70;75.70;;;;;;4947651;29;20020;-88
2021/04/24 08:17:21;;;;;;;3.83;1.05;;;9.70;74.80;;;;;;4948617;28;20024;-86
2021/04/24 08:19:47;;;;;;;3.20;1.02;;;9.80;72.50;;;;;;4954265;29;20082;-86
2021/04/24 08:22:12;;;;;;;3.97;1.50;;;9.90;72.30;;;;;;4947631;29;20488;-86
2021/04/24 08:24:38;;;;;;;4.45;1.60;;;10.00;70.00;;;;;;4951379;29;20023;-86
2021/04/24 08:27:04;;;;;;;4.95;1.15;;;10.00;69.60;;;;;;4950935;29;20023;-87
2021/04/24 08:29:30;;;;;;;2.95;0.70;;;10.10;70.30;;;;;;4950361;29;20028;-87
2021/04/24 08:31:55;;;;;;;4.47;0.70;;;10.40;68.40;;;;;;4950939;29;20122;-88
2021/04/24 08:34:24;;;;;;;3.67;0.85;;;10.30;66.00;;;;;;4951193;28;20067;-88
2021/04/24 08:36:50;;;;;;;3.40;1.00;;;10.30;64.80;;;;;;4953320;28;20058;-88
2021/04/24 08:39:15;;;;;;;4.20;1.10;;;10.50;64.80;;;;;;4951045;28;20425;-88
2021/04/24 08:41:41;;;;;;;3.53;1.40;;;10.50;64.30;;;;;;4949479;29;20062;-88
2021/04/24 08:44:07;;;;;;;4.75;1.00;;;10.50;63.60;;;;;;4946509;29;20032;-88
2021/04/24 08:46:33;;;;;;;4.55;1.27;;;10.40;61.40;;;;;;4945747;29;20502;-87
2021/04/24 08:48:59;;;;;;;7.22;1.67;;;10.40;61.70;;;;;;4948331;28;20407;-88
2021/04/24 08:51:28;;;;;;;7.63;1.13;;;10.40;62.30;;;;;;4972261;28;20038;-87
2021/04/24 08:53:56;;;;;;;3.90;0.90;;;10.50;62.80;;;;;;4971313;28;20107;-87
2021/04/24 08:56:24;;;;;;;3.60;1.00;;;10.70;62.30;;;;;;4956539;29;20170;-88
2021/04/24 08:58:56;;;;;;;3.20;1.05;;;10.90;62.50;;;;;;4944626;29;20035;-87
2021/04/24 09:01:38;;;;;;;3.97;1.27;;;11.20;61.90;;;;;;4949526;29;20093;-88
2021/04/24 09:04:04;;;;;;;3.35;0.93;;;11.30;60.00;;;;;;4956946;29;20031;-87
2021/04/24 09:06:33;;;;;;;2.70;1.05;;;11.30;60.10;;;;;;4951856;29;20020;-87
2021/04/24 09:09:00;;;;;;;3.97;0.90;;;11.40;60.10;;;;;;4942540;29;20038;-87
2021/04/24 09:11:27;;;;;;;4.00;2.50;;;11.40;60.20;;;;;;4969936;28;20106;-85
2021/04/24 09:14:08;;;;;;;5.18;1.20;;;11.40;59.10;;;;;;4946916;29;20039;-88
2021/04/24 09:16:35;;;;;;;3.10;1.17;;;11.40;59.10;;;;;;4951756;29;20042;-87
2021/04/24 09:19:01;;;;;;;8.18;1.50;;;11.50;59.60;;;;;;4948989;29;20390;-88
2021/04/24 09:21:29;;;;;;;4.10;0.98;;;11.50;58.50;;;;;;4948278;29;20042;-88
2021/04/24 09:23:55;;;;;;;4.72;1.25;;;11.40;58.20;;;;;;4946833;29;20118;-88
2021/04/24 09:26:23;;;;;;;3.80;1.00;;;11.40;58.50;;;;;;4948156;29;21641;-85
2021/04/24 09:29:02;;;;;;;3.47;0.80;;;11.50;57.80;;;;;;4947885;29;20087;-87
2021/04/24 09:31:28;;;;;;;3.22;1.00;;;11.50;58.70;;;;;;4946706;29;20035;-87
2021/04/24 09:33:57;;;;;;;3.33;1.13;;;11.70;59.00;;;;;;4947102;28;20115;-87
2021/04/24 09:36:31;;;;;;;3.85;1.00;;;11.80;58.40;;;;;;4948608;29;20487;-87
2021/04/24 09:39:03;;;;;;;4.90;1.92;;;11.90;58.20;;;;;;4949432;28;20455;-86
2021/04/24 09:41:33;;;;;;;6.83;1.43;;;12.10;57.50;;;;;;4952461;28;20043;-87
2021/04/24 09:44:14;;;;;;;3.30;1.25;;;12.00;56.40;;;;;;4949188;29;20036;-86
2021/04/24 09:46:48;;;;;;;3.38;1.30;;;11.90;56.30;;;;;;4944666;28;20023;-87
2021/04/24 09:49:27;;;;;;;2.25;1.00;;;11.90;56.10;;;;;;4942521;29;20028;-87
2021/04/24 09:51:58;;;;;;;2.90;1.00;;;11.80;55.80;;;;;;4944714;28;20027;-87
2021/04/24 09:54:35;;;;;;;6.15;1.48;;;11.90;55.90;;;;;;4947178;29;20102;-88
2021/04/24 09:57:15;;;;;;;6.07;2.50;;;11.90;56.00;;;;;;4948576;28;20019;-88
2021/04/24 10:00:03;;;;;;;6.55;1.15;;;11.90;55.40;;;;;;4949144;29;20484;-88
2021/04/24 10:02:30;;;;;;;6.90;1.60;;;11.90;55.60;;;;;;4949684;29;20024;-87
2021/04/24 10:05:15;;;;;;;2.85;0.80;;;11.90;55.00;;;;;;4946364;29;20086;-88
2021/04/24 10:07:46;;;;;;;4.13;0.80;;;12.00;55.20;;;;;;4948624;28;20023;-88
2021/04/24 10:10:24;;;;;;;2.67;0.85;;;12.10;54.70;;;;;;4963159;28;20023;-88
2021/04/24 10:13:03;;;;;;;4.32;0.95;;;12.20;54.20;;;;;;4948320;29;20058;-86
2021/04/24 10:15:35;;;;;;;6.60;1.45;;;12.30;54.20;;;;;;4950934;28;20242;-87
2021/04/24 10:18:02;;;;;;;3.35;1.10;;;12.40;54.10;;;;;;4946455;29;20378;-87
2021/04/24 10:20:28;;;;;;;3.53;1.13;;;12.40;54.50;;;;;;4948316;29;20399;-87
2021/04/24 10:22:55;;;;;;;2.63;1.30;;;12.40;54.60;;;;;;4945605;29;20110;-87
2021/04/24 10:25:21;;;;;;;3.40;1.02;;;12.50;54.40;;;;;;4946107;29;20027;-88
2021/04/24 10:27:47;;;;;;;3.80;1.17;;;12.60;54.40;;;;;;4947613;29;20039;-88
2021/04/24 10:30:13;;;;;;;4.05;1.65;;;12.80;53.60;;;;;;4949602;29;20019;-87
2021/04/24 10:32:41;;;;;;;3.08;1.08;;;12.80;53.30;;;;;;4948433;29;20028;-88
2021/04/24 10:35:09;;;;;;;3.05;1.20;;;12.80;52.80;;;;;;4946372;28;20064;-88
2021/04/24 10:37:34;;;;;;;3.67;0.82;;;12.80;52.10;;;;;;4945521;29;20023;-86
2021/04/24 10:40:01;;;;;;;2.40;0.93;;;12.70;51.50;;;;;;4946830;29;20031;-87
2021/04/24 10:42:29;;;;;;;3.00;1.20;;;12.80;51.20;;;;;;4932446;29;20055;-87
2021/04/24 10:44:57;;;;;;;3.95;1.65;;;12.70;50.80;;;;;;4944923;29;20479;-86
2021/04/24 10:47:38;;;;;;;4.53;1.48;;;12.70;51.10;;;;;;4945201;29;20516;-86
2021/04/24 10:50:06;;;;;;;5.18;2.20;;;12.70;51.50;;;;;;4943150;29;20487;-87
2021/04/24 10:52:32;;;;;;;5.35;1.70;;;12.80;51.40;;;;;;4945884;29;20376;-87
2021/04/24 10:55:13;;;;;;;5.28;1.65;;;12.80;51.50;;;;;;4953474;29;20035;-87
2021/04/24 10:57:38;;;;;;;4.68;1.38;;;12.90;51.50;;;;;;4953228;29;20038;-86
2021/04/24 11:00:11;;;;;;;4.20;1.20;;;13.20;50.60;;;;;;4943109;29;20024;-86
2021/04/24 11:02:42;;;;;;;4.63;1.48;;;13.30;49.20;;;;;;4945614;29;20054;-86
2021/04/24 11:05:28;;;;;;;4.22;1.70;;;13.50;49.20;;;;;;4947255;29;20035;-86
2021/04/24 11:08:19;;;;;;;7.75;2.20;;;13.70;49.70;;;;;;4970524;28;20047;-86
2021/04/24 11:11:02;;;;;;;2.53;1.55;;;13.80;49.40;;;;;;4954278;29;20091;-85
2021/04/24 11:13:38;;;;;;;3.42;1.33;;;14.00;49.80;;;;;;4950111;28;20039;-87
2021/04/24 11:16:05;;;;;;;4.35;1.27;;;14.20;48.10;;;;;;4952867;29;20046;-88
2021/04/24 11:18:32;;;;;;;4.20;1.60;;;14.30;47.40;;;;;;4954889;29;20507;-86
2021/04/24 11:21:01;;;;;;;3.13;1.48;;;14.20;46.90;;;;;;4950471;29;20546;-87
2021/04/24 11:23:29;;;;;;;3.42;1.20;;;14.30;47.40;;;;;;4955687;29;20035;-87
2021/04/24 11:25:56;;;;;;;2.38;0.85;;;14.50;47.10;;;;;;4965642;28;20600;-86
2021/04/24 11:28:22;;;;;;;3.08;0.80;;;14.50;45.00;;;;;;4952514;29;20126;-85
2021/04/24 11:30:53;;;;;;;2.90;1.20;;;14.60;45.60;;;;;;4956335;29;20117;-87
2021/04/24 11:33:38;;;;;;;3.33;1.13;;;14.60;44.00;;;;;;4954877;29;20035;-87
2021/04/24 11:36:27;;;;;;;2.45;0.90;;;14.60;44.80;;;;;;4957229;29;20023;-87
2021/04/24 11:38:56;;;;;;;2.38;0.70;;;14.60;43.80;;;;;;4955601;29;20037;-88
2021/04/24 11:41:35;;;;;;;1.23;0.60;;;14.60;43.30;;;;;;4951225;28;20058;-87
2021/04/24 11:44:26;;;;;;;2.42;0.77;;;14.70;42.40;;;;;;4955315;29;20114;-87
2021/04/24 11:46:56;;;;;;;3.67;0.85;;;14.80;41.90;;;;;;4950502;29;20031;-87
2021/04/24 11:49:26;;;;;;;1.52;0.60;;;14.90;41.10;;;;;;4949352;29;20090;-87
2021/04/24 11:52:13;;;;;;;4.28;0.80;;;15.10;42.10;;;;;;4958868;29;20031;-87
2021/04/24 11:54:42;;;;;;;2.70;0.80;;;15.40;40.20;;;;;;4967630;28;20082;-87
2021/04/24 11:57:09;;;;;;;2.78;1.20;;;15.30;40.40;;;;;;4950149;29;20028;-87
2021/04/24 11:59:37;;;;;;;3.63;1.42;;;15.20;40.50;;;;;;4954116;29;20024;-87
2021/04/24 12:02:15;;;;;;;2.72;1.00;;;15.10;41.40;;;;;;4952056;29;20082;-88
2021/04/24 12:04:42;;;;;;;3.45;0.98;;;15.20;41.00;;;;;;4959987;29;20031;-87
2021/04/24 12:07:11;;;;;;;3.67;1.80;;;15.10;41.60;;;;;;4955545;29;20467;-86
2021/04/24 12:09:48;;;;;;;3.97;1.10;;;15.20;41.80;;;;;;4945034;29;20522;-87
2021/04/24 12:12:15;;;;;;;2.85;1.10;;;15.30;41.80;;;;;;4969031;28;20027;-87
2021/04/24 12:14:41;;;;;;;3.92;1.40;;;15.30;42.10;;;;;;4959069;28;20045;-88
2021/04/24 12:17:17;;;;;;;4.43;1.50;;;15.40;41.50;;;;;;4960531;29;20057;-86
2021/04/24 12:19:46;;;;;;;4.28;1.60;;;15.40;42.00;;;;;;4961034;29;20023;-87
2021/04/24 12:22:15;;;;;;;5.72;1.40;;;15.40;40.80;;;;;;4956364;29;20055;-86
2021/04/24 12:24:59;;;;;;;3.50;1.60;;;15.20;40.70;;;;;;4954079;29;20111;-86
2021/04/24 12:27:34;;;;;;;3.65;1.88;;;15.10;41.20;;;;;;4947767;29;20031;-87
2021/04/24 12:30:01;;;;;;;5.57;1.35;;;15.00;41.50;;;;;;4959912;29;20551;-87
2021/04/24 12:32:33;;;;;;;3.58;1.58;;;15.00;41.90;;;;;;4960726;29;20043;-87
2021/04/24 12:35:07;;;;;;;6.30;2.33;;;14.90;42.10;;;;;;4953758;29;20405;-88
2021/04/24 12:37:33;;;;;;;4.95;1.60;;;14.80;42.30;;;;;;4947806;29;20034;-87
2021/04/24 12:40:09;;;;;;;4.72;0.95;;;14.80;42.40;;;;;;4956486;29;20027;-88
2021/04/24 12:42:35;;;;;;;4.57;1.88;;;14.80;42.40;;;;;;4950722;29;20047;-87
2021/04/24 12:45:16;;;;;;;5.13;1.42;;;14.80;42.30;;;;;;4961032;29;20031;-86
2021/04/24 12:47:42;;;;;;;5.07;1.90;;;14.70;42.60;;;;;;4961573;28;20051;-88
2021/04/24 12:50:33;;;;;;;3.97;1.65;;;14.70;43.10;;;;;;4954140;29;20038;-87
2021/04/24 12:53:02;;;;;;;4.15;1.83;;;14.80;43.50;;;;;;4957239;29;20062;-88